createdAt,value
2023-03-08T00:01:16.719Z,7.60
2023-03-08T00:03:44.021Z,7.67
2023-03-08T00:06:16.522Z,7.70
2023-03-08T00:08:43.607Z,8.60
2023-03-08T00:11:12.728Z,7.43
2023-03-08T00:13:40.838Z,7.90
2023-03-08T00:16:11.620Z,7.70
2023-03-08T00:18:38.643Z,7.90
2023-03-08T00:21:13.383Z,7.27
2023-03-08T00:23:41.484Z,9.30
2023-03-08T00:26:09.694Z,7.50
2023-03-08T00:28:36.614Z,7.77
2023-03-08T00:31:07.525Z,7.83
2023-03-08T00:33:35.291Z,9.33
2023-03-08T00:36:05.240Z,8.77
2023-03-08T00:38:35.330Z,9.03
2023-03-08T00:41:03.547Z,8.53
2023-03-08T00:43:32.888Z,8.80
2023-03-08T00:46:04.055Z,8.13
2023-03-08T00:48:31.591Z,9.03
2023-03-08T00:50:58.587Z,8.47
2023-03-08T00:53:25.899Z,8.70
2023-03-08T00:55:56.134Z,9.37
2023-03-08T00:58:26.346Z,8.43
2023-03-08T01:00:53.876Z,8.57
2023-03-08T01:03:23.466Z,9.03
2023-03-08T01:05:56.292Z,11.17
2023-03-08T01:08:25.769Z,9.87
2023-03-08T01:10:59.781Z,10.83
2023-03-08T01:13:31.192Z,11.70
2023-03-08T01:15:58.749Z,14.13
2023-03-08T01:18:26.196Z,14.03
2023-03-08T01:21:02.406Z,12.30
2023-03-08T01:23:31.159Z,12.10
2023-03-08T01:26:04.958Z,12.90
2023-03-08T01:28:33.271Z,11.27
2023-03-08T01:31:15.367Z,13.67
2023-03-08T01:33:43.490Z,13.37
2023-03-08T01:36:17.728Z,9.90
2023-03-08T01:38:47.201Z,11.43
2023-03-08T01:41:22.022Z,10.77
2023-03-08T01:43:50.703Z,12.30
2023-03-08T01:46:34.070Z,10.70
2023-03-08T01:49:27.052Z,10.40
2023-03-08T01:52:04.589Z,11.93
2023-03-08T01:54:46.885Z,12.40
2023-03-08T01:57:24.793Z,10.13
2023-03-08T01:59:55.794Z,10.30
2023-03-08T02:02:35.368Z,10.07
2023-03-08T02:05:02.220Z,9.47
2023-03-08T02:07:30.730Z,10.57
2023-03-08T02:09:58.257Z,11.77
2023-03-08T02:12:26.547Z,10.07
2023-03-08T02:14:53.630Z,9.73
2023-03-08T02:17:23.034Z,11.20
2023-03-08T02:20:24.578Z,10.70
2023-03-08T02:22:53.132Z,12.30
2023-03-08T02:25:24.888Z,12.23
2023-03-08T02:27:55.086Z,11.23
2023-03-08T02:30:32.249Z,13.30
2023-03-08T02:32:59.104Z,15.60
2023-03-08T02:35:29.268Z,12.57
2023-03-08T02:37:56.365Z,10.50
2023-03-08T02:40:24.792Z,10.30
2023-03-08T02:42:53.379Z,10.30
2023-03-08T02:45:20.356Z,11.70
2023-03-08T02:47:47.235Z,10.27
2023-03-08T02:50:14.353Z,11.63
2023-03-08T02:52:41.142Z,12.23
2023-03-08T02:55:08.450Z,8.40
2023-03-08T02:57:35.258Z,9.17
2023-03-08T03:00:06.054Z,8.07
2023-03-08T03:02:34.196Z,9.83
2023-03-08T03:05:04.710Z,7.60
2023-03-08T03:07:35.874Z,9.40
2023-03-08T03:10:04.642Z,8.93
2023-03-08T03:12:31.763Z,9.53
2023-03-08T03:14:58.559Z,9.37
2023-03-08T03:17:25.465Z,7.67
2023-03-08T03:19:52.232Z,8.50
2023-03-08T03:22:19.013Z,10.87
2023-03-08T03:24:45.949Z,9.17
2023-03-08T03:27:13.054Z,9.30
2023-03-08T03:29:40.405Z,9.50
2023-03-08T03:32:12.982Z,10.00
2023-03-08T03:34:40.168Z,10.10
2023-03-08T03:37:07.230Z,9.93
2023-03-08T03:39:39.121Z,10.37
2023-03-08T03:42:08.713Z,10.50
2023-03-08T03:44:38.617Z,11.17
2023-03-08T03:47:08.474Z,9.23
2023-03-08T03:49:35.346Z,10.50
2023-03-08T03:52:03.747Z,10.30
2023-03-08T03:54:40.154Z,9.97
2023-03-08T03:57:07.603Z,8.77
2023-03-08T03:59:38.145Z,10.97
2023-03-08T04:02:05.028Z,10.23
2023-03-08T04:04:50.714Z,10.40
2023-03-08T04:07:20.854Z,10.63
2023-03-08T04:09:55.490Z,9.60
2023-03-08T04:12:22.313Z,9.67
2023-03-08T04:14:49.902Z,9.43
2023-03-08T04:17:17.782Z,7.40
2023-03-08T04:19:50.359Z,9.50
2023-03-08T04:22:18.169Z,9.40
2023-03-08T04:24:49.968Z,8.33
2023-03-08T04:27:22.065Z,7.60
2023-03-08T04:29:48.906Z,9.70
2023-03-08T04:32:16.497Z,9.07
2023-03-08T04:34:48.347Z,10.07
2023-03-08T04:37:19.060Z,11.03
2023-03-08T04:39:50.036Z,9.87
2023-03-08T04:42:17.691Z,8.50
2023-03-08T04:44:45.644Z,9.73
2023-03-08T04:47:14.923Z,8.93
2023-03-08T04:49:45.844Z,9.60
2023-03-08T04:52:13.223Z,8.53
2023-03-08T04:54:41.264Z,9.43
2023-03-08T04:57:19.864Z,9.20
2023-03-08T04:59:48.406Z,7.93
2023-03-08T05:02:15.272Z,8.47
2023-03-08T05:04:43.341Z,8.40
2023-03-08T05:07:10.817Z,9.30
2023-03-08T05:09:38.226Z,8.63
2023-03-08T05:12:05.329Z,9.33
2023-03-08T05:14:49.458Z,9.40
2023-03-08T05:17:16.536Z,8.73
2023-03-08T05:19:43.341Z,9.67
2023-03-08T05:22:12.305Z,11.60
2023-03-08T05:24:46.189Z,19.27
2023-03-08T05:27:14.123Z,18.03
2023-03-08T05:29:41.080Z,12.70
2023-03-08T05:32:12.151Z,14.07
2023-03-08T05:34:40.007Z,10.77
2023-03-08T05:37:10.049Z,10.40
2023-03-08T05:39:38.455Z,10.90
2023-03-08T05:42:27.343Z,10.73
2023-03-08T05:44:55.048Z,10.87
2023-03-08T05:47:29.225Z,11.47
2023-03-08T05:49:56.360Z,10.93
2023-03-08T05:52:23.734Z,9.47
2023-03-08T05:54:50.567Z,10.17
2023-03-08T05:57:19.705Z,11.17
2023-03-08T05:59:47.803Z,9.13
2023-03-08T06:02:17.852Z,9.53
2023-03-08T06:04:50.449Z,8.80
2023-03-08T06:07:20.405Z,8.20
2023-03-08T06:09:58.315Z,8.70
2023-03-08T06:12:25.163Z,8.50
2023-03-08T06:14:55.436Z,8.87
2023-03-08T06:17:25.362Z,9.63
2023-03-08T06:19:54.392Z,9.60
2023-03-08T06:22:22.328Z,7.87
2023-03-08T06:24:49.864Z,9.23
2023-03-08T06:27:22.394Z,9.50
2023-03-08T06:29:51.402Z,10.17
2023-03-08T06:32:19.443Z,9.83
2023-03-08T06:34:47.657Z,8.37
2023-03-08T06:37:15.025Z,9.83
2023-03-08T06:39:42.205Z,8.40
2023-03-08T06:42:09.163Z,8.07
2023-03-08T06:44:36.628Z,8.23
2023-03-08T06:47:04.160Z,7.83
2023-03-08T06:49:30.985Z,8.30
2023-03-08T06:51:58.652Z,9.07
2023-03-08T06:54:26.313Z,11.47
2023-03-08T06:56:53.060Z,8.03
2023-03-08T06:59:19.938Z,12.60
2023-03-08T07:01:46.820Z,11.87
2023-03-08T07:04:14.021Z,11.27
2023-03-08T07:06:40.826Z,9.50
2023-03-08T07:09:07.834Z,8.77
2023-03-08T07:11:34.890Z,8.97
2023-03-08T07:14:01.949Z,7.83
2023-03-08T07:16:28.791Z,8.17
2023-03-08T07:18:56.880Z,7.50
2023-03-08T07:21:24.569Z,7.50
2023-03-08T07:23:53.164Z,7.27
2023-03-08T07:26:19.967Z,7.03
2023-03-08T07:28:51.352Z,6.43
2023-03-08T07:31:18.464Z,8.37
2023-03-08T07:33:45.710Z,7.77
2023-03-08T07:36:13.257Z,7.37
2023-03-08T07:38:40.096Z,14.40
2023-03-08T07:41:07.056Z,10.07
2023-03-08T07:43:33.944Z,18.20
2023-03-08T07:46:09.024Z,12.17
2023-03-08T07:48:35.853Z,8.67
2023-03-08T07:51:07.214Z,9.10
2023-03-08T07:53:35.011Z,10.53
2023-03-08T07:56:02.204Z,10.37
2023-03-08T07:58:30.008Z,7.37
2023-03-08T08:00:56.994Z,6.83
2023-03-08T08:03:24.202Z,6.27
2023-03-08T08:05:51.047Z,6.00
2023-03-08T08:08:17.921Z,7.27
2023-03-08T08:10:45.001Z,7.93
2023-03-08T08:13:11.847Z,7.87
2023-03-08T08:15:38.634Z,11.20
2023-03-08T08:18:05.642Z,10.07
2023-03-08T08:20:32.491Z,8.17
2023-03-08T08:22:59.287Z,8.20
2023-03-08T08:25:26.109Z,7.03
2023-03-08T08:27:53.003Z,7.30
2023-03-08T08:30:20.556Z,6.43
2023-03-08T08:32:47.582Z,7.20
2023-03-08T08:35:14.825Z,8.27
2023-03-08T08:37:41.807Z,8.90
2023-03-08T08:40:10.712Z,11.47
2023-03-08T08:42:38.054Z,9.40
2023-03-08T08:45:05.865Z,7.50
2023-03-08T08:47:32.963Z,6.40
2023-03-08T08:49:59.931Z,8.17
2023-03-08T08:52:26.779Z,7.30
2023-03-08T08:54:53.784Z,7.13
2023-03-08T08:57:20.532Z,6.27
2023-03-08T08:59:47.643Z,6.57
2023-03-08T09:02:15.049Z,13.77
2023-03-08T09:04:41.967Z,13.30
2023-03-08T09:07:08.920Z,11.70
2023-03-08T09:09:35.822Z,12.30
2023-03-08T09:12:02.872Z,12.17
2023-03-08T09:14:29.754Z,11.23
2023-03-08T09:16:56.744Z,8.17
2023-03-08T09:19:23.622Z,8.10
2023-03-08T09:21:50.720Z,10.00
2023-03-08T09:24:17.734Z,6.07
2023-03-08T09:26:44.560Z,10.07
2023-03-08T09:29:11.873Z,9.30
2023-03-08T09:31:39.903Z,6.10
2023-03-08T09:34:09.008Z,5.67
2023-03-08T09:36:39.385Z,6.77
2023-03-08T09:39:11.526Z,7.03
2023-03-08T09:41:44.068Z,6.53
2023-03-08T09:44:35.222Z,40.27
2023-03-08T09:47:14.450Z,10.10
2023-03-08T09:49:46.517Z,7.70
2023-03-08T09:52:40.060Z,6.60
2023-03-08T09:55:30.622Z,6.70
2023-03-08T09:58:41.071Z,6.10
2023-03-08T10:01:36.238Z,5.60
2023-03-08T10:04:20.439Z,5.50
2023-03-08T10:07:22.798Z,5.47
2023-03-08T10:10:38.192Z,5.77
2023-03-08T10:13:30.246Z,5.07
2023-03-08T10:16:28.883Z,5.40
2023-03-08T10:19:32.980Z,4.87
2023-03-08T10:22:39.050Z,5.33
2023-03-08T10:25:28.615Z,5.53
2023-03-08T10:27:58.976Z,4.87
2023-03-08T10:30:40.965Z,5.30
2023-03-08T10:33:14.788Z,5.37
2023-03-08T10:36:16.975Z,4.40
2023-03-08T10:39:02.464Z,6.83
2023-03-08T10:41:36.553Z,5.40
2023-03-08T10:44:04.176Z,4.93
2023-03-08T10:46:32.811Z,4.80
2023-03-08T10:49:17.956Z,5.50
2023-03-08T10:52:01.101Z,5.47
2023-03-08T10:54:28.730Z,5.27
2023-03-08T10:57:02.098Z,5.67
2023-03-08T10:59:35.324Z,5.50
2023-03-08T11:02:14.295Z,5.90
2023-03-08T11:04:59.026Z,5.83
2023-03-08T11:07:33.251Z,5.40
2023-03-08T11:10:12.259Z,6.20
2023-03-08T11:12:39.530Z,5.97
2023-03-08T11:15:20.725Z,5.67
2023-03-08T11:18:19.438Z,5.50
2023-03-08T11:21:00.917Z,5.83
2023-03-08T11:24:08.335Z,6.53
2023-03-08T11:26:51.138Z,6.43
2023-03-08T11:29:50.578Z,6.50
2023-03-08T11:32:36.001Z,5.50
2023-03-08T11:35:20.764Z,6.00
2023-03-08T11:38:03.456Z,5.43
2023-03-08T11:40:52.399Z,6.07
2023-03-08T11:44:03.876Z,6.53
2023-03-08T11:46:48.593Z,6.23
2023-03-08T11:49:36.414Z,5.57
2023-03-08T11:52:36.897Z,6.60
2023-03-08T11:55:25.741Z,5.40
2023-03-08T11:58:11.489Z,6.60
2023-03-08T12:00:43.618Z,5.63
2023-03-08T12:03:23.542Z,6.70
2023-03-08T12:05:56.934Z,5.90
2023-03-08T12:08:38.872Z,6.43
2023-03-08T12:11:17.059Z,5.73
2023-03-08T12:14:01.973Z,5.43
2023-03-08T12:17:24.832Z,5.30
2023-03-08T12:19:52.078Z,6.07
2023-03-08T12:23:00.905Z,5.40
2023-03-08T12:25:34.683Z,7.13
2023-03-08T12:28:24.375Z,5.67
2023-03-08T12:31:35.761Z,5.10
2023-03-08T12:34:37.806Z,5.87
2023-03-08T12:37:05.606Z,5.20
2023-03-08T12:39:36.535Z,6.60
2023-03-08T12:42:16.667Z,6.63
2023-03-08T12:44:43.946Z,5.00
2023-03-08T12:47:13.865Z,5.03
2023-03-08T12:49:46.305Z,5.27
2023-03-08T12:52:18.973Z,6.03
2023-03-08T12:55:20.861Z,6.07
2023-03-08T12:57:54.352Z,5.80
2023-03-08T13:00:25.393Z,5.10
2023-03-08T13:03:04.315Z,6.53
2023-03-08T13:05:37.948Z,6.30
2023-03-08T13:08:15.053Z,5.80
2023-03-08T13:10:50.789Z,5.50
2023-03-08T13:13:39.183Z,7.07
2023-03-08T13:16:39.560Z,5.70
2023-03-08T13:19:15.293Z,6.20
2023-03-08T13:22:14.463Z,5.80
2023-03-08T13:24:51.027Z,5.80
2023-03-08T13:27:51.785Z,6.17
2023-03-08T13:31:00.693Z,5.50
2023-03-08T13:33:37.678Z,5.60
2023-03-08T13:36:21.626Z,6.03
2023-03-08T13:39:23.213Z,6.30
2023-03-08T13:41:50.549Z,5.53
2023-03-08T13:44:24.520Z,5.90
2023-03-08T13:47:00.486Z,6.10
2023-03-08T13:49:37.027Z,5.43
2023-03-08T13:52:16.929Z,5.50
2023-03-08T13:54:51.489Z,5.60
2023-03-08T13:57:29.100Z,5.50
2023-03-08T14:00:01.841Z,5.30
2023-03-08T14:02:32.675Z,4.87
2023-03-08T14:04:59.769Z,6.27
2023-03-08T14:07:32.080Z,6.00
2023-03-08T14:09:59.085Z,6.00
2023-03-08T14:12:33.496Z,5.87
2023-03-08T14:15:06.319Z,5.80
2023-03-08T14:17:35.880Z,6.40
2023-03-08T14:20:18.943Z,5.80
2023-03-08T14:22:52.094Z,6.40
2023-03-08T14:25:32.315Z,5.70
2023-03-08T14:27:59.392Z,5.70
2023-03-08T14:30:31.140Z,5.10
2023-03-08T14:33:19.183Z,5.40
2023-03-08T14:35:58.488Z,5.60
2023-03-08T14:38:32.653Z,6.03
2023-03-08T14:41:06.398Z,5.40
2023-03-08T14:43:33.963Z,6.13
2023-03-08T14:46:09.437Z,6.43
2023-03-08T14:48:38.538Z,5.30
2023-03-08T14:51:27.234Z,6.80
2023-03-08T14:54:19.312Z,6.50
2023-03-08T14:56:47.091Z,7.10
2023-03-08T14:59:25.224Z,6.60
2023-03-08T15:01:54.106Z,6.53
2023-03-08T15:04:24.752Z,7.47
2023-03-08T15:06:54.494Z,6.63
2023-03-08T15:09:23.047Z,6.70
2023-03-08T15:11:54.136Z,6.80
2023-03-08T15:14:21.243Z,7.63
2023-03-08T15:16:48.132Z,8.70
2023-03-08T15:19:14.983Z,7.80
2023-03-08T15:21:42.568Z,8.43
2023-03-08T15:24:19.498Z,12.00
2023-03-08T15:26:46.627Z,11.27
2023-03-08T15:29:32.883Z,10.20
2023-03-08T15:32:00.410Z,11.63
2023-03-08T15:34:28.577Z,10.20
2023-03-08T15:36:56.106Z,9.97
2023-03-08T15:39:23.341Z,9.60
2023-03-08T15:41:50.187Z,9.27
2023-03-08T15:44:17.016Z,9.90
2023-03-08T15:46:43.801Z,8.87
2023-03-08T15:49:11.154Z,8.50
2023-03-08T15:51:38.335Z,8.40
2023-03-08T15:54:06.901Z,7.97
2023-03-08T15:56:34.204Z,8.07
2023-03-08T15:59:01.195Z,8.47
2023-03-08T16:01:28.077Z,9.93
2023-03-08T16:03:56.957Z,9.60
2023-03-08T16:06:25.198Z,11.50
2023-03-08T16:08:52.044Z,11.67
2023-03-08T16:11:22.712Z,19.03
2023-03-08T16:13:52.234Z,13.07
2023-03-08T16:16:20.292Z,11.37
2023-03-08T16:18:48.425Z,9.80
2023-03-08T16:21:15.686Z,11.50
2023-03-08T16:23:42.883Z,13.60
2023-03-08T16:26:16.772Z,13.80
2023-03-08T16:28:46.918Z,12.53
2023-03-08T16:31:15.965Z,12.80
2023-03-08T16:33:42.849Z,12.13
2023-03-08T16:36:11.375Z,11.07
2023-03-08T16:38:38.519Z,10.97
2023-03-08T16:41:12.695Z,11.73
2023-03-08T16:43:47.266Z,12.53
2023-03-08T16:46:18.182Z,12.33
2023-03-08T16:48:45.443Z,11.80
2023-03-08T16:51:15.046Z,11.40
2023-03-08T16:53:42.166Z,10.57
2023-03-08T16:56:10.890Z,10.23
2023-03-08T16:58:37.692Z,11.13
2023-03-08T17:01:12.273Z,10.03
2023-03-08T17:03:39.402Z,10.63
2023-03-08T17:06:12.767Z,11.20
2023-03-08T17:08:40.580Z,9.37
2023-03-08T17:11:16.799Z,9.33
2023-03-08T17:13:47.500Z,16.73
2023-03-08T17:16:14.555Z,17.97
2023-03-08T17:18:41.382Z,15.10
2023-03-08T17:21:09.759Z,16.87
2023-03-08T17:23:37.206Z,16.37
2023-03-08T17:26:06.688Z,15.70
2023-03-08T17:28:35.036Z,13.77
2023-03-08T17:31:07.317Z,13.17
2023-03-08T17:33:34.138Z,13.33
2023-03-08T17:36:02.092Z,11.67
2023-03-08T17:38:29.253Z,21.83
2023-03-08T17:40:56.124Z,20.43
2023-03-08T17:43:23.069Z,19.20
2023-03-08T17:46:05.758Z,19.57
2023-03-08T17:48:34.092Z,23.77
2023-03-08T17:51:10.195Z,15.63
2023-03-08T17:53:38.140Z,16.30
2023-03-08T17:56:11.657Z,17.00
2023-03-08T17:58:38.827Z,18.03
2023-03-08T18:01:12.982Z,15.47
2023-03-08T18:03:40.448Z,17.23
2023-03-08T18:06:08.956Z,13.97
2023-03-08T18:08:36.441Z,14.50
2023-03-08T18:11:03.727Z,13.03
2023-03-08T18:13:30.499Z,10.57
2023-03-08T18:15:57.529Z,12.40
2023-03-08T18:18:24.647Z,12.17
2023-03-08T18:20:52.128Z,10.90
2023-03-08T18:23:20.448Z,12.03
2023-03-08T18:25:47.478Z,12.97
2023-03-08T18:28:14.874Z,12.20
2023-03-08T18:30:42.113Z,12.43
2023-03-08T18:33:10.291Z,11.80
2023-03-08T18:35:37.374Z,12.60
2023-03-08T18:38:04.396Z,11.80
2023-03-08T18:40:31.459Z,16.57
2023-03-08T18:42:58.486Z,20.80
2023-03-08T18:45:25.307Z,21.03
2023-03-08T18:47:52.800Z,25.10
2023-03-08T18:50:20.162Z,25.27
2023-03-08T18:52:47.219Z,23.83
2023-03-08T18:55:14.358Z,18.83
2023-03-08T18:57:41.729Z,21.57
2023-03-08T19:00:11.740Z,17.93
2023-03-08T19:02:39.638Z,19.30
2023-03-08T19:05:07.559Z,19.97
2023-03-08T19:07:34.670Z,19.83
2023-03-08T19:10:01.757Z,12.57
2023-03-08T19:12:30.022Z,19.77
2023-03-08T19:14:57.087Z,17.33
2023-03-08T19:17:23.839Z,25.43
2023-03-08T19:19:50.693Z,22.60
2023-03-08T19:22:17.737Z,20.97
2023-03-08T19:24:44.616Z,19.03
2023-03-08T19:27:13.650Z,16.53
2023-03-08T19:29:40.504Z,24.23
2023-03-08T19:32:10.791Z,20.67
2023-03-08T19:34:44.705Z,15.57
2023-03-08T19:37:13.946Z,21.20
2023-03-08T19:39:43.559Z,19.60
2023-03-08T19:42:15.189Z,18.57
2023-03-08T19:44:44.212Z,22.27
2023-03-08T19:47:11.140Z,24.97
2023-03-08T19:49:39.901Z,28.57
2023-03-08T19:52:07.423Z,27.23
2023-03-08T19:54:35.212Z,25.97
2023-03-08T19:57:03.074Z,22.33
2023-03-08T19:59:29.942Z,20.93
2023-03-08T20:01:57.106Z,26.10
2023-03-08T20:04:25.000Z,15.07
2023-03-08T20:06:52.582Z,22.60
2023-03-08T20:09:23.973Z,24.27
2023-03-08T20:11:57.176Z,21.50
2023-03-08T20:14:27.063Z,21.07
2023-03-08T20:16:54.986Z,18.37
2023-03-08T20:19:22.121Z,18.43
2023-03-08T20:21:49.133Z,16.27
2023-03-08T20:24:18.403Z,21.33
2023-03-08T20:26:45.767Z,23.70
2023-03-08T20:29:12.622Z,19.67
2023-03-08T20:31:39.667Z,21.40
2023-03-08T20:34:06.491Z,26.33
2023-03-08T20:36:33.423Z,22.80
2023-03-08T20:39:00.740Z,20.87
2023-03-08T20:41:28.405Z,20.17
2023-03-08T20:43:55.758Z,16.93
2023-03-08T20:46:27.668Z,20.43
2023-03-08T20:48:54.584Z,20.43
2023-03-08T20:51:24.154Z,18.07
2023-03-08T20:53:54.364Z,21.70
2023-03-08T20:56:23.799Z,23.77
2023-03-08T20:58:54.272Z,16.07
2023-03-08T21:01:26.530Z,19.97
2023-03-08T21:03:53.378Z,17.80
2023-03-08T21:06:24.956Z,24.43
2023-03-08T21:08:53.148Z,23.10
2023-03-08T21:11:20.903Z,25.33
2023-03-08T21:13:50.550Z,19.77
2023-03-08T21:16:20.813Z,22.13
2023-03-08T21:18:53.725Z,26.53
2023-03-08T21:21:38.386Z,20.27
2023-03-08T21:24:18.139Z,28.87
2023-03-08T21:26:46.038Z,18.57
2023-03-08T21:29:17.194Z,23.47
2023-03-08T21:31:51.648Z,30.73
2023-03-08T21:34:20.577Z,29.83
2023-03-08T21:36:47.649Z,26.50
2023-03-08T21:39:15.331Z,26.60
2023-03-08T21:41:45.972Z,24.27
2023-03-08T21:44:19.895Z,25.07
2023-03-08T21:46:47.805Z,33.93
2023-03-08T21:49:24.323Z,34.27
2023-03-08T21:51:53.528Z,50.97
2023-03-08T21:54:22.332Z,40.77
2023-03-08T21:56:49.559Z,44.17
2023-03-08T21:59:17.174Z,43.17
2023-03-08T22:01:48.657Z,32.13
2023-03-08T22:04:16.495Z,34.83
2023-03-08T22:06:43.789Z,32.80
2023-03-08T22:09:11.074Z,27.50
2023-03-08T22:11:38.642Z,34.10
2023-03-08T22:14:06.305Z,25.07
2023-03-08T22:16:37.607Z,23.57
2023-03-08T22:19:05.074Z,22.13
2023-03-08T22:21:32.391Z,27.40
2023-03-08T22:24:02.258Z,22.20
2023-03-08T22:26:30.935Z,24.67
2023-03-08T22:28:58.665Z,26.70
2023-03-08T22:31:28.637Z,28.10
2023-03-08T22:33:55.831Z,29.47
2023-03-08T22:36:23.358Z,20.37
2023-03-08T22:38:50.621Z,25.40
2023-03-08T22:41:25.197Z,18.90
2023-03-08T22:43:53.352Z,27.23
2023-03-08T22:46:24.305Z,24.77
2023-03-08T22:48:52.478Z,21.47
2023-03-08T22:51:22.212Z,17.20
2023-03-08T22:53:50.057Z,21.87
2023-03-08T22:56:26.008Z,16.90
2023-03-08T22:58:53.162Z,19.53
2023-03-08T23:01:23.077Z,22.93
2023-03-08T23:03:53.548Z,15.67
2023-03-08T23:06:20.600Z,22.63
2023-03-08T23:08:47.765Z,19.73
2023-03-08T23:11:15.285Z,17.03
2023-03-08T23:13:43.152Z,18.53
2023-03-08T23:16:14.674Z,16.80
2023-03-08T23:18:42.285Z,23.07
2023-03-08T23:21:14.134Z,22.30
2023-03-08T23:23:41.561Z,17.60
2023-03-08T23:26:13.322Z,19.57
2023-03-08T23:28:40.445Z,17.57
2023-03-08T23:31:13.082Z,21.07
2023-03-08T23:33:40.665Z,26.43
2023-03-08T23:36:10.250Z,18.37
2023-03-08T23:38:37.495Z,15.37
2023-03-08T23:41:07.042Z,19.80
2023-03-08T23:43:35.483Z,19.07
2023-03-08T23:46:08.322Z,26.70
2023-03-08T23:48:35.658Z,30.13
2023-03-08T23:51:09.161Z,33.07
2023-03-08T23:53:36.822Z,20.43
2023-03-08T23:56:05.114Z,20.70
2023-03-08T23:58:32.282Z,22.77
